Time;durP1;ratioP1;P1;durP2;ratioP2;P2;SDS_P1;SDS_P2;PMS_P1;PMS_P2;Temp;Humidity;BMP_temperature;BMP_pressure;BME280_temperature;BME280_humidity;BME280_pressure;Samples;Min_cycle;Max_cycle;Signal;HPM_P1;HPM_P2
2023/07/23 00:05:45;;;;;;;3.28;1.10;;;;;;;;;;21011550;28;20358;-81
2023/07/23 00:15:47;;;;;;;2.22;0.95;;;;;;;;;;20924820;28;20230;-79
2023/07/23 00:25:49;;;;;;;1.17;0.80;;;;;;;;;;20930169;28;20219;-78
2023/07/23 00:35:51;;;;;;;1.55;0.90;;;;;;;;;;20998195;28;20234;-79
2023/07/23 00:45:53;;;;;;;2.05;0.85;;;;;;;;;;20982971;28;20222;-77
2023/07/23 00:55:55;;;;;;;1.50;0.90;;;;;;;;;;20990427;28;20340;-77
2023/07/23 01:06:01;;;;;;;2.43;0.97;;;;;;;;;;20976015;28;20238;-78
2023/07/23 01:16:07;;;;;;;1.47;0.97;;;;;;;;;;20972096;28;20248;-78
2023/07/23 01:26:09;;;;;;;2.53;1.10;;;;;;;;;;21012133;28;20217;-79
2023/07/23 01:36:11;;;;;;;1.77;0.97;;;;;;;;;;21004148;28;20241;-77
2023/07/23 01:46:13;;;;;;;1.40;0.87;;;;;;;;;;20996397;28;20618;-77
2023/07/23 01:56:14;;;;;;;1.43;0.80;;;;;;;;;;20954686;28;20223;-77
2023/07/23 02:06:16;;;;;;;2.50;1.10;;;;;;;;;;21015751;28;20225;-78
2023/07/23 02:16:18;;;;;;;1.50;0.90;;;;;;;;;;20982099;28;20224;-78
2023/07/23 02:26:20;;;;;;;1.43;0.90;;;;;;;;;;20977316;28;20221;-78
2023/07/23 02:36:22;;;;;;;2.03;0.80;;;;;;;;;;20985040;28;20232;-78
2023/07/23 02:46:24;;;;;;;2.13;1.10;;;;;;;;;;20981362;28;20213;-79
2023/07/23 02:56:26;;;;;;;1.37;0.77;;;;;;;;;;21041125;28;20224;-78
2023/07/23 03:06:27;;;;;;;2.73;1.10;;;;;;;;;;20979181;28;20573;-77
2023/07/23 03:16:29;;;;;;;1.77;1.20;;;;;;;;;;20989708;28;20220;-79
2023/07/23 03:26:31;;;;;;;2.07;1.10;;;;;;;;;;20964218;28;20238;-77
2023/07/23 03:36:32;;;;;;;1.07;0.63;;;;;;;;;;20979742;28;20236;-77
2023/07/23 03:46:38;;;;;;;2.17;1.10;;;;;;;;;;21023076;28;20227;-78
2023/07/23 03:56:40;;;;;;;1.47;0.87;;;;;;;;;;20927574;28;20276;-79
2023/07/23 04:06:41;;;;;;;1.47;0.90;;;;;;;;;;20982449;28;20298;-77
2023/07/23 04:16:43;;;;;;;2.10;1.00;;;;;;;;;;20928394;28;20228;-79
2023/07/23 04:26:45;;;;;;;1.47;0.80;;;;;;;;;;20940803;28;20215;-78
2023/07/23 04:36:46;;;;;;;2.13;1.07;;;;;;;;;;21004091;28;20247;-80
2023/07/23 04:46:48;;;;;;;1.13;0.77;;;;;;;;;;20978924;28;20219;-82
2023/07/23 04:56:50;;;;;;;1.87;0.90;;;;;;;;;;20954496;28;20217;-82
2023/07/23 05:06:52;;;;;;;1.30;0.87;;;;;;;;;;21004786;28;20240;-80
2023/07/23 05:16:53;;;;;;;1.33;0.93;;;;;;;;;;21003552;28;20216;-80
2023/07/23 05:26:55;;;;;;;2.47;1.03;;;;;;;;;;20953101;28;20313;-81
2023/07/23 05:36:57;;;;;;;1.53;0.87;;;;;;;;;;21027067;28;20713;-82
2023/07/23 05:46:59;;;;;;;1.13;0.70;;;;;;;;;;20961081;28;20228;-79
2023/07/23 05:57:00;;;;;;;1.60;0.97;;;;;;;;;;20975368;28;20607;-81
2023/07/23 06:07:02;;;;;;;1.50;0.73;;;;;;;;;;20955783;28;20352;-81
2023/07/23 06:17:04;;;;;;;1.07;0.60;;;;;;;;;;20945024;28;20223;-78
2023/07/23 06:27:06;;;;;;;1.13;0.77;;;;;;;;;;20964521;28;20235;-80
2023/07/23 06:37:08;;;;;;;1.13;0.60;;;;;;;;;;20935805;28;20236;-80
2023/07/23 06:47:12;;;;;;;1.10;0.53;;;;;;;;;;20981010;28;20691;-80
2023/07/23 06:57:14;;;;;;;0.63;0.50;;;;;;;;;;20926954;28;20617;-83
2023/07/23 07:07:15;;;;;;;1.20;0.60;;;;;;;;;;20904972;28;20281;-81
2023/07/23 07:17:20;;;;;;;2.85;0.60;;;;;;;;;;20953408;28;20288;-81
2023/07/23 07:27:22;;;;;;;0.83;0.50;;;;;;;;;;20900489;28;20241;-85
2023/07/23 07:37:31;;;;;;;5.27;0.87;;;;;;;;;;20921301;28;20232;-81
2023/07/23 07:47:48;;;;;;;0.70;0.47;;;;;;;;;;20952651;28;20237;-82
2023/07/23 07:57:50;;;;;;;0.67;0.30;;;;;;;;;;21015464;28;20313;-81
2023/07/23 08:07:56;;;;;;;0.80;0.40;;;;;;;;;;20976715;28;20253;-81
2023/07/23 08:18:01;;;;;;;0.90;0.37;;;22.40;99.90;;;;;;20984493;28;20595;-80
2023/07/23 08:28:03;;;;;;;0.80;0.40;;;;;;;;;;20980212;28;20303;-88
2023/07/23 08:38:05;;;;;;;2.00;0.57;;;;;;;;;;20940329;28;20294;-79
2023/07/23 08:48:17;;;;;;;0.40;0.37;;;;;;;;;;20886806;28;20231;-81
2023/07/23 08:58:19;;;;;;;0.70;0.40;;;;;;;;;;20833415;28;20294;-83
2023/07/23 09:08:32;;;;;;;7.93;1.67;;;;;;;;;;20877132;28;20320;-83
2023/07/23 09:18:40;;;;;;;0.97;0.60;;;;;;;;;;20844474;28;20223;-81
2023/07/23 09:28:42;;;;;;;1.55;0.73;;;;;;;;;;20871539;28;20263;-81
2023/07/23 09:38:52;;;;;;;0.70;0.50;;;;;;;;;;20920673;28;20740;-87
2023/07/23 09:48:55;;;;;;;0.73;0.43;;;;;;;;;;21006486;28;20280;-82
2023/07/23 09:59:00;;;;;;;0.85;0.30;;;;;;;;;;20923283;28;20277;-84
2023/07/23 10:09:16;;;;;;;2.42;0.60;;;;;;;;;;20975445;28;20235;-82
2023/07/23 10:19:22;;;;;;;4.57;0.63;;;;;;;;;;20946016;28;20279;-83
2023/07/23 10:29:34;;;;;;;0.40;0.30;;;;;;;;;;20936561;28;20769;-82
2023/07/23 10:39:41;;;;;;;1.77;0.70;;;;;;;;;;20944107;28;20238;-82
2023/07/23 10:50:05;;;;;;;0.90;0.50;;;;;;;;;;20998233;28;20294;-84
2023/07/23 11:00:25;;;;;;;2.95;0.52;;;;;;;;;;20931910;28;20316;-83
2023/07/23 11:10:44;;;;;;;2.47;0.75;;;;;;;;;;20978703;28;20290;-82
2023/07/23 11:20:52;;;;;;;3.13;0.43;;;;;;;;;;20946207;28;20275;-83
2023/07/23 11:30:58;;;;;;;1.17;0.50;;;;;;;;;;20951522;28;20722;-81
2023/07/23 11:41:00;;;;;;;1.00;0.57;;;;;;;;;;20982392;28;20249;-83
2023/07/23 11:51:02;;;;;;;0.90;0.50;;;;;;;;;;20933512;28;20243;-85
2023/07/23 12:01:05;;;;;;;1.30;0.60;;;;;;;;;;20965976;28;20238;-82
2023/07/23 12:11:12;;;;;;;1.35;0.63;;;;;;;;;;21003450;28;20238;-81
2023/07/23 12:21:23;;;;;;;1.35;0.60;;;;;;;;;;20916492;28;20215;-83
2023/07/23 12:31:25;;;;;;;0.77;0.50;;;;;;;;;;20960601;28;20773;-83
2023/07/23 12:41:27;;;;;;;3.15;0.93;;;;;;;;;;20948843;28;20294;-82
2023/07/23 12:51:29;;;;;;;3.47;0.60;;;;;;;;;;20945754;28;20232;-86
2023/07/23 13:01:31;;;;;;;0.70;0.43;;;;;;;;;;21009893;28;20219;-85
2023/07/23 13:11:35;;;;;;;4.45;0.77;;;;;;;;;;20992994;28;20255;-87
2023/07/23 13:21:38;;;;;;;1.10;0.60;;;;;;;;;;21059970;28;20220;-86
2023/07/23 13:31:43;;;;;;;0.68;0.50;;;;;;;;;;20962309;28;20265;-87
2023/07/23 13:41:48;;;;;;;1.13;0.65;;;;;;;;;;20924603;28;20228;-85
2023/07/23 13:51:49;;;;;;;2.58;0.80;;;;;;;;;;20894242;28;20228;-85
2023/07/23 14:01:53;;;;;;;4.50;0.77;;;;;;;;;;20911150;28;20650;-83
2023/07/23 14:11:55;;;;;;;5.70;0.95;;;;;;;;;;20929804;28;20235;-88
2023/07/23 14:21:57;;;;;;;1.35;0.60;;;;;;;;;;20878539;28;20706;-88
2023/07/23 14:32:00;;;;;;;0.90;0.50;;;;;;;;;;20894513;28;20268;-86
2023/07/23 14:42:03;;;;;;;1.85;0.70;;;;;;;;;;20965851;28;20676;-86
2023/07/23 14:52:09;;;;;;;2.05;0.80;;;;;;;;;;20956531;28;20224;-87
2023/07/23 15:02:14;;;;;;;1.10;0.80;;;;;;;;;;20943577;28;20204;-87
2023/07/23 15:12:16;;;;;;;0.82;0.50;;;;;;;;;;20941381;28;20642;-84
2023/07/23 15:22:22;;;;;;;0.95;0.50;;;;;;;;;;20939434;28;20211;-86
2023/07/23 15:32:23;;;;;;;0.88;0.50;;;;;;;;;;20949442;28;20297;-86
2023/07/23 15:42:25;;;;;;;1.08;0.73;;;;;;;;;;20959855;28;20595;-86
2023/07/23 15:52:27;;;;;;;1.17;0.68;;;;;;;;;;20943007;28;20249;-84
2023/07/23 16:02:29;;;;;;;0.80;0.50;;;;;;;;;;20978067;28;20241;-85
2023/07/23 16:12:31;;;;;;;0.80;0.45;;;;;;;;;;20956434;28;20589;-86
2023/07/23 16:22:36;;;;;;;0.88;0.63;;;;;;;;;;20934019;28;20249;-84
2023/07/23 16:32:41;;;;;;;0.95;0.60;;;;;;;;;;20931940;28;20231;-86
2023/07/23 16:42:48;;;;;;;1.20;0.60;;;;;;;;;;20930080;28;20224;-87
2023/07/23 16:53:17;;;;;;;0.80;0.47;;;27.80;75.30;;;;;;20931835;28;20320;-88
2023/07/23 17:03:50;;;;;;;0.98;0.73;;;;;;;;;;20910631;28;20209;-83
2023/07/23 17:14:04;;;;;;;0.63;0.60;;;;;;;;;;20981485;28;20708;-88
2023/07/23 17:24:21;;;;;;;0.90;0.55;;;;;;;;;;20964831;28;20252;-85
2023/07/23 17:34:22;;;;;;;0.85;0.50;;;;;;;;;;20940466;28;20597;-84
2023/07/23 17:44:30;;;;;;;5.10;0.80;;;;;;;;;;20971189;28;20215;-86
2023/07/23 17:54:35;;;;;;;1.00;0.52;;;;;;;;;;20929312;28;20250;-84
2023/07/23 18:04:36;;;;;;;1.05;0.60;;;;;;;;;;20990846;28;20228;-85
2023/07/23 18:14:38;;;;;;;0.90;0.60;;;;;;;;;;20993772;28;20224;-84
2023/07/23 18:24:40;;;;;;;1.10;0.68;;;;;;;;;;20989557;28;20227;-85
2023/07/23 18:34:43;;;;;;;0.93;0.57;;;;;;;;;;20973239;28;20313;-85
2023/07/23 18:44:45;;;;;;;1.85;0.70;;;;;;;;;;20995704;28;20630;-85
2023/07/23 18:54:47;;;;;;;1.10;0.63;;;;;;;;;;20939685;28;20229;-84
2023/07/23 19:04:48;;;;;;;0.90;0.60;;;;;;;;;;20967051;28;20285;-83
2023/07/23 19:14:50;;;;;;;1.35;0.80;;;;;;;;;;20894073;28;20235;-84
2023/07/23 19:24:52;;;;;;;1.40;0.70;;;;;;;;;;20940646;28;20275;-84
2023/07/23 19:34:54;;;;;;;3.40;0.73;;;;;;;;;;20922916;28;20244;-83
2023/07/23 19:44:56;;;;;;;1.35;0.60;;;;;;;;;;20945704;28;20223;-84
2023/07/23 19:54:57;;;;;;;1.60;0.93;;;;;;;;;;20968516;28;20294;-85
2023/07/23 20:05:00;;;;;;;1.10;0.57;;;;;;;;;;20932277;28;20251;-84
2023/07/23 20:15:01;;;;;;;1.20;0.63;;;;;;;;;;20962970;28;20266;-85
2023/07/23 20:25:03;;;;;;;0.98;0.63;;;;;;;;;;20944912;28;20277;-85
2023/07/23 20:35:05;;;;;;;2.75;0.80;;;;;;;;;;20991630;28;20239;-86
2023/07/23 20:45:08;;;;;;;3.08;0.80;;;;;;;;;;20944497;28;20281;-81
2023/07/23 20:55:12;;;;;;;5.07;0.82;;;;;;;;;;20953081;28;20244;-81
2023/07/23 21:05:15;;;;;;;1.83;0.95;;;;;;;;;;20960016;28;20229;-82
2023/07/23 21:15:16;;;;;;;1.75;0.80;;;;;;;;;;20938202;28;20223;-82
2023/07/23 21:25:19;;;;;;;1.67;0.88;;;;;;;;;;20953399;28;20283;-82
2023/07/23 21:35:21;;;;;;;2.00;1.00;;;;;;;;;;20980429;28;20685;-82
2023/07/23 21:45:23;;;;;;;1.67;0.90;;;;;;;;;;20966429;28;20228;-80
2023/07/23 21:55:25;;;;;;;1.33;0.80;;;;;;;;;;20969256;28;20239;-82
2023/07/23 22:05:27;;;;;;;1.13;0.70;;;;;;;;;;20944500;28;20239;-81
2023/07/23 22:15:28;;;;;;;3.22;0.98;;;;;;;;;;21010265;28;20705;-80
2023/07/23 22:25:30;;;;;;;1.25;0.70;;;;;;;;;;20945054;28;20292;-80
2023/07/23 22:35:33;;;;;;;9.25;1.45;;;;;;;;;;20958542;28;20238;-81
2023/07/23 22:45:35;;;;;;;1.30;0.63;;;;;;;;;;20916432;28;20714;-83
2023/07/23 22:55:36;;;;;;;1.67;0.85;;;;;;;;;;21003505;28;20308;-81
2023/07/23 23:05:38;;;;;;;1.48;0.80;;;;;;;;;;20981237;28;20288;-82
2023/07/23 23:15:40;;;;;;;1.70;0.90;;;;;;;;;;21000644;28;20297;-83
2023/07/23 23:25:42;;;;;;;1.85;0.90;;;;;;;;;;20976647;28;20238;-83
2023/07/23 23:35:44;;;;;;;1.75;0.90;;;;;;;;;;20972703;28;20226;-81
2023/07/23 23:45:46;;;;;;;1.35;0.70;;;;;;;;;;20916394;28;20212;-80
2023/07/23 23:55:47;;;;;;;2.22;0.90;;;;;;;;;;20934301;28;20247;-82
